sensor_id;sensor_type;location;lat;lon;timestamp;pressure;altitude;pressure_sealevel;temperature;humidity
50310;BME280;36207;51.850;21.698;2023-02-13T00:00:17;101593.17;;;2.20;81.49
50310;BME280;36207;51.850;21.698;2023-02-13T00:03:03;101590.55;;;2.20;81.70
50310;BME280;36207;51.850;21.698;2023-02-13T00:05:29;101590.88;;;2.20;81.41
50310;BME280;36207;51.850;21.698;2023-02-13T00:07:56;101592.52;;;2.22;81.72
50310;BME280;36207;51.850;21.698;2023-02-13T00:10:21;101590.89;;;2.23;81.74
50310;BME280;36207;51.850;21.698;2023-02-13T00:12:47;101594.04;;;2.23;81.98
50310;BME280;36207;51.850;21.698;2023-02-13T00:15:13;101598.59;;;2.24;82.15
50310;BME280;36207;51.850;21.698;2023-02-13T00:17:39;101595.23;;;2.24;82.55
50310;BME280;36207;51.850;21.698;2023-02-13T00:20:05;101599.91;;;2.25;82.09
50310;BME280;36207;51.850;21.698;2023-02-13T00:22:35;101598.95;;;2.27;82.61
50310;BME280;36207;51.850;21.698;2023-02-13T00:25:03;101598.43;;;2.27;81.88
50310;BME280;36207;51.850;21.698;2023-02-13T00:27:30;101596.39;;;2.29;81.77
50310;BME280;36207;51.850;21.698;2023-02-13T00:29:56;101591.19;;;2.30;82.05
50310;BME280;36207;51.850;21.698;2023-02-13T00:32:22;101593.52;;;2.32;81.96
50310;BME280;36207;51.850;21.698;2023-02-13T00:34:47;101594.17;;;2.34;81.70
50310;BME280;36207;51.850;21.698;2023-02-13T00:37:13;101590.42;;;2.35;81.84
50310;BME280;36207;51.850;21.698;2023-02-13T00:39:40;101591.70;;;2.37;81.90
50310;BME280;36207;51.850;21.698;2023-02-13T00:42:06;101592.67;;;2.38;83.11
50310;BME280;36207;51.850;21.698;2023-02-13T00:44:32;101593.39;;;2.38;82.83
50310;BME280;36207;51.850;21.698;2023-02-13T00:46:58;101590.41;;;2.38;82.87
50310;BME280;36207;51.850;21.698;2023-02-13T00:49:24;101587.61;;;2.38;82.69
50310;BME280;36207;51.850;21.698;2023-02-13T00:51:50;101582.95;;;2.39;83.03
50310;BME280;36207;51.850;21.698;2023-02-13T00:54:17;101579.75;;;2.40;83.01
50310;BME280;36207;51.850;21.698;2023-02-13T00:56:43;101575.53;;;2.39;83.12
50310;BME280;36207;51.850;21.698;2023-02-13T00:59:08;101569.05;;;2.39;83.05
50310;BME280;36207;51.850;21.698;2023-02-13T01:01:34;101568.49;;;2.40;83.14
50310;BME280;36207;51.850;21.698;2023-02-13T01:04:00;101567.56;;;2.41;83.45
50310;BME280;36207;51.850;21.698;2023-02-13T01:06:26;101572.66;;;2.41;83.12
50310;BME280;36207;51.850;21.698;2023-02-13T01:08:52;101576.24;;;2.40;84.36
50310;BME280;36207;51.850;21.698;2023-02-13T01:11:18;101573.48;;;2.39;84.49
50310;BME280;36207;51.850;21.698;2023-02-13T01:13:45;101577.17;;;2.39;84.32
50310;BME280;36207;51.850;21.698;2023-02-13T01:16:11;101573.27;;;2.39;84.41
50310;BME280;36207;51.850;21.698;2023-02-13T01:18:38;101574.84;;;2.40;84.66
50310;BME280;36207;51.850;21.698;2023-02-13T01:21:07;101567.54;;;2.41;84.52
50310;BME280;36207;51.850;21.698;2023-02-13T01:23:36;101558.66;;;2.43;84.38
50310;BME280;36207;51.850;21.698;2023-02-13T01:26:03;101560.02;;;2.43;85.21
50310;BME280;36207;51.850;21.698;2023-02-13T01:28:30;101555.34;;;2.43;84.87
50310;BME280;36207;51.850;21.698;2023-02-13T01:30:57;101552.41;;;2.44;84.44
50310;BME280;36207;51.850;21.698;2023-02-13T01:33:25;101559.45;;;2.47;84.70
50310;BME280;36207;51.850;21.698;2023-02-13T01:35:52;101546.46;;;2.50;85.15
50310;BME280;36207;51.850;21.698;2023-02-13T01:38:18;101549.20;;;2.51;84.72
50310;BME280;36207;51.850;21.698;2023-02-13T01:40:49;101542.30;;;2.52;85.40
50310;BME280;36207;51.850;21.698;2023-02-13T01:43:15;101544.32;;;2.54;86.02
50310;BME280;36207;51.850;21.698;2023-02-13T01:45:43;101547.34;;;2.56;85.98
50310;BME280;36207;51.850;21.698;2023-02-13T01:48:24;101544.68;;;2.57;85.89
50310;BME280;36207;51.850;21.698;2023-02-13T01:51:01;101551.85;;;2.57;85.78
50310;BME280;36207;51.850;21.698;2023-02-13T01:53:39;101549.83;;;2.59;85.52
50310;BME280;36207;51.850;21.698;2023-02-13T01:56:17;101549.80;;;2.59;86.03
50310;BME280;36207;51.850;21.698;2023-02-13T01:58:48;101548.77;;;2.59;86.42
50310;BME280;36207;51.850;21.698;2023-02-13T02:01:16;101551.35;;;2.60;86.11
50310;BME280;36207;51.850;21.698;2023-02-13T02:03:55;101550.58;;;2.61;86.40
50310;BME280;36207;51.850;21.698;2023-02-13T02:06:27;101550.38;;;2.61;86.15
50310;BME280;36207;51.850;21.698;2023-02-13T02:08:59;101544.03;;;2.61;86.89
50310;BME280;36207;51.850;21.698;2023-02-13T02:11:34;101539.09;;;2.62;86.28
50310;BME280;36207;51.850;21.698;2023-02-13T02:14:02;101537.48;;;2.62;86.20
50310;BME280;36207;51.850;21.698;2023-02-13T02:16:30;101531.46;;;2.63;86.54
50310;BME280;36207;51.850;21.698;2023-02-13T02:18:57;101532.12;;;2.63;86.49
50310;BME280;36207;51.850;21.698;2023-02-13T02:27:18;101527.04;;;2.66;86.97
50310;BME280;36207;51.850;21.698;2023-02-13T02:43:47;101520.25;;;2.74;87.09
50310;BME280;36207;51.850;21.698;2023-02-13T02:48:56;101518.42;;;2.75;87.59
50310;BME280;36207;51.850;21.698;2023-02-13T02:52:07;101518.52;;;2.77;87.67
50310;BME280;36207;51.850;21.698;2023-02-13T02:54:49;101518.91;;;2.79;87.67
50310;BME280;36207;51.850;21.698;2023-02-13T02:57:47;101518.56;;;2.79;88.08
50310;BME280;36207;51.850;21.698;2023-02-13T03:00:36;101521.99;;;2.80;87.85
50310;BME280;36207;51.850;21.698;2023-02-13T03:03:39;101519.91;;;2.83;87.70
50310;BME280;36207;51.850;21.698;2023-02-13T03:06:32;101519.96;;;2.85;87.15
50310;BME280;36207;51.850;21.698;2023-02-13T03:09:03;101524.13;;;2.85;87.57
50310;BME280;36207;51.850;21.698;2023-02-13T03:11:52;101520.98;;;2.88;87.86
50310;BME280;36207;51.850;21.698;2023-02-13T03:14:38;101518.07;;;2.90;88.08
50310;BME280;36207;51.850;21.698;2023-02-13T03:17:05;101520.55;;;2.90;87.90
50310;BME280;36207;51.850;21.698;2023-02-13T03:23:05;101525.60;;;2.94;88.02
50310;BME280;36207;51.850;21.698;2023-02-13T03:32:13;101528.58;;;3.00;87.97
50310;BME280;36207;51.850;21.698;2023-02-13T03:34:58;101527.91;;;3.02;87.71
50310;BME280;36207;51.850;21.698;2023-02-13T03:37:49;101525.34;;;3.03;87.68
50310;BME280;36207;51.850;21.698;2023-02-13T03:40:55;101523.00;;;3.04;87.61
50310;BME280;36207;51.850;21.698;2023-02-13T03:46:16;101528.20;;;3.08;87.82
50310;BME280;36207;51.850;21.698;2023-02-13T03:48:44;101525.02;;;3.08;88.19
50310;BME280;36207;51.850;21.698;2023-02-13T03:51:40;101521.40;;;3.10;87.95
50310;BME280;36207;51.850;21.698;2023-02-13T03:54:20;101520.21;;;3.12;88.44
50310;BME280;36207;51.850;21.698;2023-02-13T03:57:08;101513.13;;;3.13;88.78
50310;BME280;36207;51.850;21.698;2023-02-13T03:59:56;101506.91;;;3.14;88.52
50310;BME280;36207;51.850;21.698;2023-02-13T04:02:28;101504.05;;;3.15;88.66
50310;BME280;36207;51.850;21.698;2023-02-13T04:05:05;101505.55;;;3.17;88.83
50310;BME280;36207;51.850;21.698;2023-02-13T04:07:34;101506.33;;;3.18;88.74
50310;BME280;36207;51.850;21.698;2023-02-13T04:10:06;101506.28;;;3.19;88.75
50310;BME280;36207;51.850;21.698;2023-02-13T04:15:26;101504.27;;;3.23;88.71
50310;BME280;36207;51.850;21.698;2023-02-13T04:18:21;101498.98;;;3.23;89.22
50310;BME280;36207;51.850;21.698;2023-02-13T04:20:48;101501.02;;;3.24;89.24
50310;BME280;36207;51.850;21.698;2023-02-13T04:23:14;101495.80;;;3.26;89.05
50310;BME280;36207;51.850;21.698;2023-02-13T04:25:42;101494.46;;;3.28;89.18
50310;BME280;36207;51.850;21.698;2023-02-13T04:28:09;101491.95;;;3.28;89.15
50310;BME280;36207;51.850;21.698;2023-02-13T04:30:36;101489.02;;;3.30;89.19
50310;BME280;36207;51.850;21.698;2023-02-13T04:33:03;101486.40;;;3.32;89.24
50310;BME280;36207;51.850;21.698;2023-02-13T04:35:29;101484.00;;;3.34;88.96
50310;BME280;36207;51.850;21.698;2023-02-13T04:37:55;101485.85;;;3.35;88.61
50310;BME280;36207;51.850;21.698;2023-02-13T04:40:21;101485.83;;;3.36;88.65
50310;BME280;36207;51.850;21.698;2023-02-13T04:42:47;101486.63;;;3.38;89.32
50310;BME280;36207;51.850;21.698;2023-02-13T04:45:14;101486.91;;;3.39;89.44
50310;BME280;36207;51.850;21.698;2023-02-13T04:47:40;101486.19;;;3.39;89.20
50310;BME280;36207;51.850;21.698;2023-02-13T04:50:06;101486.36;;;3.39;89.73
50310;BME280;36207;51.850;21.698;2023-02-13T04:52:32;101486.95;;;3.40;89.53
50310;BME280;36207;51.850;21.698;2023-02-13T04:54:58;101488.61;;;3.42;89.33
50310;BME280;36207;51.850;21.698;2023-02-13T04:57:24;101490.71;;;3.43;89.28
50310;BME280;36207;51.850;21.698;2023-02-13T04:59:50;101490.66;;;3.44;89.54
50310;BME280;36207;51.850;21.698;2023-02-13T05:02:16;101493.56;;;3.45;89.72
50310;BME280;36207;51.850;21.698;2023-02-13T05:04:42;101496.30;;;3.46;89.70
50310;BME280;36207;51.850;21.698;2023-02-13T05:07:07;101495.50;;;3.47;89.44
50310;BME280;36207;51.850;21.698;2023-02-13T05:09:33;101496.14;;;3.48;89.16
50310;BME280;36207;51.850;21.698;2023-02-13T05:11:59;101494.79;;;3.50;89.02
50310;BME280;36207;51.850;21.698;2023-02-13T05:14:26;101498.75;;;3.52;89.17
50310;BME280;36207;51.850;21.698;2023-02-13T05:16:52;101500.45;;;3.52;89.64
50310;BME280;36207;51.850;21.698;2023-02-13T05:19:17;101502.36;;;3.53;89.52
50310;BME280;36207;51.850;21.698;2023-02-13T05:21:43;101503.58;;;3.53;89.40
50310;BME280;36207;51.850;21.698;2023-02-13T05:24:28;101503.02;;;3.54;89.85
50310;BME280;36207;51.850;21.698;2023-02-13T05:26:54;101504.01;;;3.55;89.58
50310;BME280;36207;51.850;21.698;2023-02-13T05:29:20;101502.56;;;3.55;89.54
50310;BME280;36207;51.850;21.698;2023-02-13T05:34:16;101505.66;;;3.56;89.50
50310;BME280;36207;51.850;21.698;2023-02-13T05:36:42;101505.25;;;3.57;89.59
50310;BME280;36207;51.850;21.698;2023-02-13T05:39:08;101506.98;;;3.58;89.40
50310;BME280;36207;51.850;21.698;2023-02-13T05:41:34;101505.84;;;3.59;89.48
50310;BME280;36207;51.850;21.698;2023-02-13T05:43:59;101505.74;;;3.61;89.59
50310;BME280;36207;51.850;21.698;2023-02-13T05:46:25;101507.92;;;3.63;89.82
50310;BME280;36207;51.850;21.698;2023-02-13T05:48:51;101506.98;;;3.64;89.39
50310;BME280;36207;51.850;21.698;2023-02-13T05:51:18;101505.38;;;3.64;89.48
50310;BME280;36207;51.850;21.698;2023-02-13T05:53:44;101507.43;;;3.65;89.48
50310;BME280;36207;51.850;21.698;2023-02-13T05:56:10;101510.38;;;3.66;89.38
50310;BME280;36207;51.850;21.698;2023-02-13T05:58:36;101514.20;;;3.66;89.39
50310;BME280;36207;51.850;21.698;2023-02-13T06:01:03;101517.45;;;3.68;89.20
50310;BME280;36207;51.850;21.698;2023-02-13T06:03:30;101520.62;;;3.71;89.14
50310;BME280;36207;51.850;21.698;2023-02-13T06:05:56;101521.20;;;3.72;89.02
50310;BME280;36207;51.850;21.698;2023-02-13T06:08:23;101524.45;;;3.74;89.03
50310;BME280;36207;51.850;21.698;2023-02-13T06:10:49;101524.27;;;3.74;89.17
50310;BME280;36207;51.850;21.698;2023-02-13T06:13:16;101526.46;;;3.75;89.13
50310;BME280;36207;51.850;21.698;2023-02-13T06:15:42;101525.32;;;3.77;89.10
50310;BME280;36207;51.850;21.698;2023-02-13T06:18:09;101531.06;;;3.78;88.94
50310;BME280;36207;51.850;21.698;2023-02-13T06:20:35;101530.39;;;3.77;89.21
50310;BME280;36207;51.850;21.698;2023-02-13T06:23:01;101531.15;;;3.77;89.29
50310;BME280;36207;51.850;21.698;2023-02-13T06:25:29;101530.71;;;3.78;89.12
50310;BME280;36207;51.850;21.698;2023-02-13T06:27:55;101533.60;;;3.80;89.11
50310;BME280;36207;51.850;21.698;2023-02-13T06:30:21;101531.43;;;3.80;89.11
50310;BME280;36207;51.850;21.698;2023-02-13T06:32:48;101532.66;;;3.80;89.27
50310;BME280;36207;51.850;21.698;2023-02-13T06:35:14;101530.81;;;3.82;89.05
50310;BME280;36207;51.850;21.698;2023-02-13T06:37:41;101524.63;;;3.82;89.36
50310;BME280;36207;51.850;21.698;2023-02-13T06:40:10;101521.48;;;3.82;89.50
50310;BME280;36207;51.850;21.698;2023-02-13T06:42:36;101520.09;;;3.81;89.86
50310;BME280;36207;51.850;21.698;2023-02-13T06:45:02;101519.76;;;3.81;89.89
50310;BME280;36207;51.850;21.698;2023-02-13T06:47:28;101520.14;;;3.81;90.10
50310;BME280;36207;51.850;21.698;2023-02-13T06:49:54;101518.23;;;3.80;90.07
50310;BME280;36207;51.850;21.698;2023-02-13T06:52:20;101515.73;;;3.81;90.11
50310;BME280;36207;51.850;21.698;2023-02-13T06:54:46;101520.46;;;3.81;90.08
50310;BME280;36207;51.850;21.698;2023-02-13T06:57:12;101517.80;;;3.82;90.39
50310;BME280;36207;51.850;21.698;2023-02-13T06:59:38;101516.20;;;3.82;90.42
50310;BME280;36207;51.850;21.698;2023-02-13T07:02:04;101514.23;;;3.83;90.40
50310;BME280;36207;51.850;21.698;2023-02-13T07:04:30;101518.20;;;3.84;90.56
50310;BME280;36207;51.850;21.698;2023-02-13T07:06:56;101520.59;;;3.85;90.65
50310;BME280;36207;51.850;21.698;2023-02-13T07:09:23;101519.94;;;3.87;91.06
50310;BME280;36207;51.850;21.698;2023-02-13T07:11:49;101519.27;;;3.86;91.05
50310;BME280;36207;51.850;21.698;2023-02-13T07:14:15;101523.36;;;3.88;90.94
50310;BME280;36207;51.850;21.698;2023-02-13T07:16:41;101522.19;;;3.90;90.88
50310;BME280;36207;51.850;21.698;2023-02-13T07:19:07;101522.80;;;3.91;91.11
50310;BME280;36207;51.850;21.698;2023-02-13T07:21:33;101524.73;;;3.92;91.21
50310;BME280;36207;51.850;21.698;2023-02-13T07:23:59;101525.50;;;3.93;91.07
50310;BME280;36207;51.850;21.698;2023-02-13T07:26:25;101525.08;;;3.94;91.21
50310;BME280;36207;51.850;21.698;2023-02-13T07:28:52;101522.05;;;3.95;91.21
50310;BME280;36207;51.850;21.698;2023-02-13T07:31:18;101516.67;;;3.96;91.45
50310;BME280;36207;51.850;21.698;2023-02-13T07:33:47;101519.54;;;3.98;91.77
50310;BME280;36207;51.850;21.698;2023-02-13T07:36:14;101517.24;;;4.01;91.55
50310;BME280;36207;51.850;21.698;2023-02-13T07:38:40;101515.92;;;4.05;91.53
50310;BME280;36207;51.850;21.698;2023-02-13T07:41:06;101509.64;;;4.10;91.29
50310;BME280;36207;51.850;21.698;2023-02-13T07:43:32;101506.47;;;4.18;91.33
50310;BME280;36207;51.850;21.698;2023-02-13T07:46:00;101507.91;;;4.28;91.29
50310;BME280;36207;51.850;21.698;2023-02-13T07:48:27;101505.80;;;4.36;91.18
50310;BME280;36207;51.850;21.698;2023-02-13T07:50:54;101506.05;;;4.42;90.69
50310;BME280;36207;51.850;21.698;2023-02-13T07:53:24;101504.86;;;4.50;90.47
50310;BME280;36207;51.850;21.698;2023-02-13T07:55:50;101511.97;;;4.54;90.20
50310;BME280;36207;51.850;21.698;2023-02-13T07:58:16;101515.73;;;4.56;90.01
50310;BME280;36207;51.850;21.698;2023-02-13T08:00:42;101516.25;;;4.58;89.97
50310;BME280;36207;51.850;21.698;2023-02-13T08:03:08;101520.64;;;4.64;89.91
50310;BME280;36207;51.850;21.698;2023-02-13T08:05:35;101515.98;;;4.76;89.90
50310;BME280;36207;51.850;21.698;2023-02-13T08:08:01;101512.83;;;4.85;89.41
50310;BME280;36207;51.850;21.698;2023-02-13T08:10:27;101511.61;;;4.90;89.07
50310;BME280;36207;51.850;21.698;2023-02-13T08:13:13;101516.41;;;4.92;88.85
50310;BME280;36207;51.850;21.698;2023-02-13T08:15:40;101515.59;;;4.97;89.16
50310;BME280;36207;51.850;21.698;2023-02-13T08:18:06;101510.10;;;5.17;89.79
50310;BME280;36207;51.850;21.698;2023-02-13T08:20:32;101504.76;;;5.50;89.40
50310;BME280;36207;51.850;21.698;2023-02-13T08:23:03;101500.64;;;5.93;89.30
50310;BME280;36207;51.850;21.698;2023-02-13T08:25:29;101500.28;;;6.21;87.63
50310;BME280;36207;51.850;21.698;2023-02-13T08:27:55;101499.10;;;6.33;87.15
50310;BME280;36207;51.850;21.698;2023-02-13T08:30:21;101498.38;;;6.33;85.10
50310;BME280;36207;51.850;21.698;2023-02-13T08:32:47;101494.99;;;6.26;85.32
50310;BME280;36207;51.850;21.698;2023-02-13T08:35:13;101493.44;;;6.16;84.58
50310;BME280;36207;51.850;21.698;2023-02-13T08:37:39;101490.91;;;6.05;84.66
50310;BME280;36207;51.850;21.698;2023-02-13T08:40:05;101495.33;;;5.98;84.89
50310;BME280;36207;51.850;21.698;2023-02-13T08:42:36;101493.80;;;5.95;85.04
50310;BME280;36207;51.850;21.698;2023-02-13T08:45:02;101492.60;;;5.94;84.96
50310;BME280;36207;51.850;21.698;2023-02-13T08:47:29;101497.66;;;5.95;85.85
50310;BME280;36207;51.850;21.698;2023-02-13T08:49:54;101499.79;;;6.02;86.24
50310;BME280;36207;51.850;21.698;2023-02-13T08:52:20;101492.47;;;6.08;85.33
50310;BME280;36207;51.850;21.698;2023-02-13T08:54:47;101489.19;;;6.07;83.92
50310;BME280;36207;51.850;21.698;2023-02-13T08:57:13;101489.00;;;6.04;84.84
50310;BME280;36207;51.850;21.698;2023-02-13T08:59:38;101494.81;;;6.05;85.13
50310;BME280;36207;51.850;21.698;2023-02-13T09:02:05;101499.30;;;6.01;84.53
50310;BME280;36207;51.850;21.698;2023-02-13T09:04:31;101500.54;;;5.99;85.18
50310;BME280;36207;51.850;21.698;2023-02-13T09:06:57;101501.52;;;6.02;85.53
50310;BME280;36207;51.850;21.698;2023-02-13T09:09:23;101503.13;;;6.04;84.60
50310;BME280;36207;51.850;21.698;2023-02-13T09:11:49;101503.83;;;6.02;84.81
50310;BME280;36207;51.850;21.698;2023-02-13T09:14:16;101500.14;;;5.97;83.80
50310;BME280;36207;51.850;21.698;2023-02-13T09:16:42;101497.30;;;5.90;84.25
50310;BME280;36207;51.850;21.698;2023-02-13T09:19:08;101500.08;;;5.88;84.98
50310;BME280;36207;51.850;21.698;2023-02-13T09:21:33;101497.35;;;5.87;84.38
50310;BME280;36207;51.850;21.698;2023-02-13T09:23:59;101500.20;;;5.84;84.43
50310;BME280;36207;51.850;21.698;2023-02-13T09:26:25;101505.20;;;5.83;84.71
50310;BME280;36207;51.850;21.698;2023-02-13T09:28:51;101502.60;;;5.82;84.71
50310;BME280;36207;51.850;21.698;2023-02-13T09:31:19;101500.54;;;5.81;84.60
50310;BME280;36207;51.850;21.698;2023-02-13T09:33:47;101498.86;;;5.78;84.63
50310;BME280;36207;51.850;21.698;2023-02-13T09:36:17;101498.61;;;5.76;84.70
50310;BME280;36207;51.850;21.698;2023-02-13T09:38:50;101501.09;;;5.76;84.29
50310;BME280;36207;51.850;21.698;2023-02-13T09:41:39;101498.61;;;5.81;85.11
50310;BME280;36207;51.850;21.698;2023-02-13T09:44:18;101495.91;;;5.89;85.43
50310;BME280;36207;51.850;21.698;2023-02-13T09:49:54;101484.92;;;6.31;85.99
50310;BME280;36207;51.850;21.698;2023-02-13T09:52:21;101484.46;;;6.50;85.65
50310;BME280;36207;51.850;21.698;2023-02-13T09:54:47;101482.10;;;6.65;85.62
50310;BME280;36207;51.850;21.698;2023-02-13T10:00:02;101483.10;;;7.28;85.88
50310;BME280;36207;51.850;21.698;2023-02-13T10:11:16;101487.43;;;7.47;81.88
50310;BME280;36207;51.850;21.698;2023-02-13T10:14:31;101493.27;;;7.26;81.36
50310;BME280;36207;51.850;21.698;2023-02-13T10:17:04;101498.88;;;7.03;80.52
50310;BME280;36207;51.850;21.698;2023-02-13T10:19:43;101495.30;;;6.80;80.86
50310;BME280;36207;51.850;21.698;2023-02-13T10:22:13;101489.72;;;6.68;81.10
50310;BME280;36207;51.850;21.698;2023-02-13T10:24:47;101487.86;;;6.62;81.49
50310;BME280;36207;51.850;21.698;2023-02-13T10:27:26;101488.63;;;6.59;81.51
50310;BME280;36207;51.850;21.698;2023-02-13T10:30:13;101489.66;;;6.59;81.93
50310;BME280;36207;51.850;21.698;2023-02-13T10:33:02;101491.67;;;6.60;81.83
50310;BME280;36207;51.850;21.698;2023-02-13T10:38:19;101480.66;;;6.56;81.63
50310;BME280;36207;51.850;21.698;2023-02-13T10:41:21;101480.13;;;6.52;80.85
50310;BME280;36207;51.850;21.698;2023-02-13T10:46:54;101481.56;;;6.40;80.67
50310;BME280;36207;51.850;21.698;2023-02-13T10:52:36;101482.11;;;6.30;80.69
50310;BME280;36207;51.850;21.698;2023-02-13T10:58:05;101479.48;;;6.23;80.72
50310;BME280;36207;51.850;21.698;2023-02-13T11:03:37;101476.80;;;6.14;80.89
50310;BME280;36207;51.850;21.698;2023-02-13T11:06:11;101475.92;;;6.14;81.22
50310;BME280;36207;51.850;21.698;2023-02-13T11:08:41;101474.05;;;6.15;80.82
50310;BME280;36207;51.850;21.698;2023-02-13T11:11:37;101465.85;;;6.16;81.04
50310;BME280;36207;51.850;21.698;2023-02-13T11:16:49;101459.25;;;6.19;81.58
50310;BME280;36207;51.850;21.698;2023-02-13T11:19:38;101456.95;;;6.26;81.60
50310;BME280;36207;51.850;21.698;2023-02-13T11:22:14;101449.29;;;6.36;81.76
50310;BME280;36207;51.850;21.698;2023-02-13T11:24:49;101448.54;;;6.51;82.14
50310;BME280;36207;51.850;21.698;2023-02-13T11:27:15;101453.60;;;6.65;82.15
50310;BME280;36207;51.850;21.698;2023-02-13T11:29:54;101450.11;;;6.76;81.64
50310;BME280;36207;51.850;21.698;2023-02-13T11:32:23;101444.06;;;6.85;81.61
50310;BME280;36207;51.850;21.698;2023-02-13T11:34:51;101442.34;;;6.94;81.15
50310;BME280;36207;51.850;21.698;2023-02-13T11:37:20;101438.11;;;6.98;79.80
50310;BME280;36207;51.850;21.698;2023-02-13T11:39:52;101438.15;;;6.95;79.99
50310;BME280;36207;51.850;21.698;2023-02-13T11:45:20;101438.40;;;6.93;80.17
50310;BME280;36207;51.850;21.698;2023-02-13T11:47:48;101443.36;;;6.88;79.81
50310;BME280;36207;51.850;21.698;2023-02-13T11:50:25;101444.23;;;6.79;79.26
50310;BME280;36207;51.850;21.698;2023-02-13T11:52:56;101442.46;;;6.70;79.71
50310;BME280;36207;51.850;21.698;2023-02-13T11:58:20;101444.57;;;6.59;80.62
50310;BME280;36207;51.850;21.698;2023-02-13T12:00:47;101442.40;;;6.55;80.18
50310;BME280;36207;51.850;21.698;2023-02-13T12:08:35;101422.11;;;6.52;80.58
50310;BME280;36207;51.850;21.698;2023-02-13T12:11:20;101422.59;;;6.55;80.71
50310;BME280;36207;51.850;21.698;2023-02-13T12:13:47;101425.25;;;6.55;79.97
50310;BME280;36207;51.850;21.698;2023-02-13T12:16:58;101424.09;;;6.44;79.45
50310;BME280;36207;51.850;21.698;2023-02-13T12:19:20;101415.85;;;6.29;79.86
50310;BME280;36207;51.850;21.698;2023-02-13T12:22:21;101410.02;;;6.20;79.93
50310;BME280;36207;51.850;21.698;2023-02-13T12:35:51;101403.16;;;6.19;81.02
50310;BME280;36207;51.850;21.698;2023-02-13T12:38:39;101397.45;;;6.18;80.64
50310;BME280;36207;51.850;21.698;2023-02-13T12:41:17;101390.02;;;6.16;80.80
50310;BME280;36207;51.850;21.698;2023-02-13T12:49:23;101391.56;;;5.95;80.33
50310;BME280;36207;51.850;21.698;2023-02-13T12:57:45;101382.12;;;5.81;80.97
50310;BME280;36207;51.850;21.698;2023-02-13T13:06:03;101371.84;;;5.90;80.68
50310;BME280;36207;51.850;21.698;2023-02-13T13:17:08;101369.44;;;5.94;80.78
50310;BME280;36207;51.850;21.698;2023-02-13T13:20:02;101360.86;;;5.92;80.60
50310;BME280;36207;51.850;21.698;2023-02-13T13:22:44;101358.02;;;5.90;80.73
50310;BME280;36207;51.850;21.698;2023-02-13T13:28:16;101353.96;;;5.90;80.60
50310;BME280;36207;51.850;21.698;2023-02-13T13:30:44;101349.71;;;5.92;80.81
50310;BME280;36207;51.850;21.698;2023-02-13T13:33:20;101347.26;;;5.97;81.01
50310;BME280;36207;51.850;21.698;2023-02-13T13:36:18;101347.18;;;6.00;81.01
50310;BME280;36207;51.850;21.698;2023-02-13T13:46:57;101329.58;;;5.85;80.35
50310;BME280;36207;51.850;21.698;2023-02-13T13:54:46;101325.04;;;5.70;80.44
50310;BME280;36207;51.850;21.698;2023-02-13T13:57:18;101322.42;;;5.70;80.44
50310;BME280;36207;51.850;21.698;2023-02-13T14:07:38;101316.45;;;5.69;80.27
50310;BME280;36207;51.850;21.698;2023-02-13T14:12:58;101326.95;;;5.73;80.46
50310;BME280;36207;51.850;21.698;2023-02-13T14:18:23;101330.50;;;5.70;80.34
50310;BME280;36207;51.850;21.698;2023-02-13T14:31:26;101336.15;;;5.77;80.64
50310;BME280;36207;51.850;21.698;2023-02-13T14:34:02;101336.77;;;5.78;80.61
50310;BME280;36207;51.850;21.698;2023-02-13T14:36:40;101334.58;;;5.80;80.59
50310;BME280;36207;51.850;21.698;2023-02-13T14:39:20;101328.08;;;5.81;80.46
50310;BME280;36207;51.850;21.698;2023-02-13T14:44:26;101298.67;;;5.75;79.77
50310;BME280;36207;51.850;21.698;2023-02-13T14:46:55;101300.80;;;5.70;79.97
50310;BME280;36207;51.850;21.698;2023-02-13T14:49:26;101310.55;;;5.70;80.23
50310;BME280;36207;51.850;21.698;2023-02-13T14:51:59;101311.84;;;5.72;80.18
50310;BME280;36207;51.850;21.698;2023-02-13T14:57:19;101311.61;;;5.75;80.14
50310;BME280;36207;51.850;21.698;2023-02-13T14:59:49;101308.73;;;5.73;80.00
50310;BME280;36207;51.850;21.698;2023-02-13T15:02:26;101318.84;;;5.73;80.14
50310;BME280;36207;51.850;21.698;2023-02-13T15:04:59;101318.35;;;5.74;79.74
50310;BME280;36207;51.850;21.698;2023-02-13T15:07:39;101313.27;;;5.72;79.57
50310;BME280;36207;51.850;21.698;2023-02-13T15:10:33;101306.90;;;5.67;79.36
50310;BME280;36207;51.850;21.698;2023-02-13T15:13:01;101302.23;;;5.63;79.54
50310;BME280;36207;51.850;21.698;2023-02-13T15:15:33;101292.50;;;5.64;79.93
50310;BME280;36207;51.850;21.698;2023-02-13T15:18:18;101291.34;;;5.65;79.71
50310;BME280;36207;51.850;21.698;2023-02-13T15:20:45;101293.59;;;5.66;79.78
50310;BME280;36207;51.850;21.698;2023-02-13T15:23:23;101282.40;;;5.64;79.55
50310;BME280;36207;51.850;21.698;2023-02-13T15:26:00;101283.21;;;5.58;79.45
50310;BME280;36207;51.850;21.698;2023-02-13T15:28:27;101291.02;;;5.53;79.56
50310;BME280;36207;51.850;21.698;2023-02-13T15:31:05;101287.80;;;5.51;79.74
50310;BME280;36207;51.850;21.698;2023-02-13T15:33:50;101281.97;;;5.51;79.81
50310;BME280;36207;51.850;21.698;2023-02-13T15:36:22;101283.98;;;5.50;79.70
50310;BME280;36207;51.850;21.698;2023-02-13T15:38:59;101282.58;;;5.48;79.54
50310;BME280;36207;51.850;21.698;2023-02-13T15:41:37;101271.59;;;5.43;79.48
50310;BME280;36207;51.850;21.698;2023-02-13T15:44:06;101277.10;;;5.41;79.65
50310;BME280;36207;51.850;21.698;2023-02-13T15:46:34;101265.31;;;5.37;79.87
50310;BME280;36207;51.850;21.698;2023-02-13T15:49:07;101257.69;;;5.33;79.74
50310;BME280;36207;51.850;21.698;2023-02-13T15:51:34;101252.58;;;5.28;79.67
50310;BME280;36207;51.850;21.698;2023-02-13T15:54:06;101255.08;;;5.23;79.84
50310;BME280;36207;51.850;21.698;2023-02-13T15:56:33;101259.98;;;5.21;80.06